createdAt,value
2019-03-06T00:00:41.742Z,9.73
2019-03-06T00:03:12.637Z,10.70
2019-03-06T00:05:45.365Z,13.43
2019-03-06T00:08:16.369Z,10.63
2019-03-06T00:10:47.349Z,15.67
2019-03-06T00:13:18.246Z,19.33
2019-03-06T00:15:49.352Z,17.17
2019-03-06T00:18:20.261Z,18.80
2019-03-06T00:20:51.183Z,15.30
2019-03-06T00:23:23.703Z,14.60
2019-03-06T00:25:56.266Z,13.77
2019-03-06T00:28:27.159Z,16.03
2019-03-06T00:30:58.087Z,16.10
2019-03-06T00:33:28.993Z,12.67
2019-03-06T00:36:01.559Z,13.20
2019-03-06T00:38:32.461Z,11.00
2019-03-06T00:41:05.989Z,8.20
2019-03-06T00:43:36.956Z,8.57
2019-03-06T00:46:07.946Z,8.20
2019-03-06T00:48:38.880Z,9.30
2019-03-06T00:51:09.799Z,9.33
2019-03-06T00:53:40.725Z,10.17
2019-03-06T00:56:11.683Z,5.67
2019-03-06T00:58:42.844Z,5.87
2019-03-06T01:01:14.258Z,7.13
2019-03-06T01:03:45.179Z,8.83
2019-03-06T01:06:16.198Z,6.93
2019-03-06T01:08:47.112Z,6.33
2019-03-06T01:11:18.190Z,6.37
2019-03-06T01:13:49.101Z,6.70
2019-03-06T01:16:20.052Z,11.63
2019-03-06T01:18:50.972Z,16.67
2019-03-06T01:21:21.930Z,12.57
2019-03-06T01:23:52.840Z,14.23
2019-03-06T01:26:23.814Z,10.77
2019-03-06T01:28:54.725Z,12.23
2019-03-06T01:31:25.862Z,9.70
2019-03-06T01:33:58.419Z,13.43
2019-03-06T01:36:31.019Z,10.90
2019-03-06T01:39:03.579Z,11.00
2019-03-06T01:41:36.199Z,11.93
2019-03-06T01:44:08.753Z,12.77
2019-03-06T01:46:39.779Z,10.37
2019-03-06T01:49:10.702Z,14.73
2019-03-06T01:51:42.024Z,17.17
2019-03-06T01:54:12.962Z,15.77
2019-03-06T01:56:44.127Z,16.80
2019-03-06T01:59:15.126Z,14.00
2019-03-06T02:01:46.079Z,17.13
2019-03-06T02:04:16.999Z,10.10
2019-03-06T02:06:47.955Z,9.40
2019-03-06T02:09:20.839Z,12.93
2019-03-06T02:11:51.816Z,11.97
2019-03-06T02:14:22.926Z,10.90
2019-03-06T02:16:53.878Z,9.90
2019-03-06T02:19:24.787Z,7.93
2019-03-06T02:21:55.736Z,9.33
2019-03-06T02:24:26.663Z,8.37
2019-03-06T02:26:58.457Z,8.27
2019-03-06T02:29:29.371Z,6.93
2019-03-06T02:32:00.317Z,7.90
2019-03-06T02:34:31.501Z,8.17
2019-03-06T02:37:02.442Z,7.83
2019-03-06T02:39:33.362Z,8.83
2019-03-06T02:42:04.344Z,6.83
2019-03-06T02:44:35.248Z,6.83
2019-03-06T02:47:06.193Z,8.27
2019-03-06T02:49:37.108Z,7.77
2019-03-06T02:52:08.062Z,7.90
2019-03-06T02:54:38.965Z,6.43
2019-03-06T02:57:09.934Z,7.97
2019-03-06T02:59:45.552Z,9.03
2019-03-06T03:02:24.068Z,9.40
2019-03-06T03:04:56.622Z,11.43
2019-03-06T03:07:27.747Z,13.27
2019-03-06T03:09:58.675Z,20.97
2019-03-06T03:12:29.640Z,19.03
2019-03-06T03:15:00.654Z,17.03
2019-03-06T03:17:31.784Z,16.27
2019-03-06T03:20:02.700Z,14.30
2019-03-06T03:22:33.647Z,12.73
2019-03-06T03:25:05.766Z,12.73
2019-03-06T03:27:36.744Z,18.43
2019-03-06T03:30:10.942Z,16.97
2019-03-06T03:32:41.898Z,19.60
2019-03-06T03:35:12.848Z,18.53
2019-03-06T03:37:43.809Z,25.93
2019-03-06T03:40:15.818Z,22.07
2019-03-06T03:42:48.406Z,24.17
2019-03-06T03:45:19.328Z,22.17
2019-03-06T03:47:50.287Z,26.40
2019-03-06T03:50:21.298Z,27.00
2019-03-06T03:52:52.244Z,22.40
2019-03-06T03:55:23.173Z,23.40
2019-03-06T03:57:54.984Z,25.73
2019-03-06T04:00:25.905Z,23.43
2019-03-06T04:02:57.067Z,20.40
2019-03-06T04:05:27.968Z,14.63
2019-03-06T04:07:59.079Z,15.53
2019-03-06T04:10:30.008Z,12.03
2019-03-06T04:13:01.882Z,15.97
2019-03-06T04:15:33.116Z,16.90
2019-03-06T04:18:04.123Z,17.73
2019-03-06T04:20:35.128Z,19.40
2019-03-06T04:23:06.083Z,20.80
2019-03-06T04:25:37.176Z,13.97
2019-03-06T04:28:08.119Z,14.63
2019-03-06T04:30:39.021Z,17.43
2019-03-06T04:33:09.949Z,19.63
2019-03-06T04:35:40.848Z,21.40
2019-03-06T04:38:11.784Z,16.13
2019-03-06T04:40:42.702Z,24.13
2019-03-06T04:43:14.512Z,24.23
2019-03-06T04:45:45.433Z,24.30
2019-03-06T04:48:16.435Z,20.77
2019-03-06T04:50:47.337Z,21.67
2019-03-06T04:53:18.264Z,24.10
2019-03-06T04:55:49.167Z,20.67
2019-03-06T04:58:20.110Z,19.93
2019-03-06T05:00:51.020Z,20.30
2019-03-06T05:03:21.941Z,31.53
2019-03-06T05:05:52.832Z,33.63
2019-03-06T05:08:23.776Z,26.27
2019-03-06T05:10:54.664Z,17.13
2019-03-06T05:13:25.658Z,14.27
2019-03-06T05:15:57.312Z,16.20
2019-03-06T05:18:35.790Z,18.40
2019-03-06T05:21:06.692Z,14.13
2019-03-06T05:23:37.608Z,13.50
2019-03-06T05:26:09.284Z,16.00
2019-03-06T05:28:41.057Z,15.43
2019-03-06T05:31:12.042Z,21.73
2019-03-06T05:33:42.965Z,126.03
2019-03-06T05:36:33.498Z,76.27
2019-03-06T05:39:07.515Z,91.40
2019-03-06T05:41:38.410Z,96.80
2019-03-06T05:44:09.463Z,137.13
2019-03-06T05:46:40.381Z,128.50
2019-03-06T05:49:11.590Z,98.73
2019-03-06T05:51:42.498Z,56.20
2019-03-06T05:54:13.430Z,44.53
2019-03-06T05:56:44.329Z,36.60
2019-03-06T05:59:15.382Z,25.63
2019-03-06T06:01:46.364Z,19.67
2019-03-06T06:04:17.300Z,17.00
2019-03-06T06:06:48.182Z,17.77
2019-03-06T06:09:19.126Z,26.93
2019-03-06T06:11:50.034Z,31.40
2019-03-06T06:14:21.813Z,34.57
2019-03-06T06:16:52.718Z,33.63
2019-03-06T06:19:23.644Z,39.10
2019-03-06T06:22:02.390Z,29.43
2019-03-06T06:24:33.331Z,28.30
2019-03-06T06:27:05.052Z,35.37
2019-03-06T06:29:35.944Z,35.90
2019-03-06T06:32:06.856Z,32.37
2019-03-06T06:34:37.784Z,37.73
2019-03-06T06:37:08.680Z,39.10
2019-03-06T06:39:39.618Z,51.10
2019-03-06T06:42:10.913Z,47.73
2019-03-06T06:44:41.895Z,39.00
2019-03-06T06:47:12.799Z,52.97
2019-03-06T06:49:43.797Z,54.83
2019-03-06T06:52:29.624Z,57.33
2019-03-06T06:55:15.377Z,87.17
2019-03-06T06:58:04.247Z,90.70
2019-03-06T07:00:52.052Z,62.17
2019-03-06T07:04:03.345Z,48.97
2019-03-06T07:06:35.928Z,26.97
2019-03-06T07:09:09.288Z,18.53
2019-03-06T07:11:41.863Z,11.60
2019-03-06T07:14:17.350Z,8.00
2019-03-06T07:16:58.978Z,12.33
2019-03-06T07:19:43.724Z,17.87
2019-03-06T07:22:19.236Z,11.87
2019-03-06T07:24:57.519Z,7.63
2019-03-06T07:27:30.890Z,9.30
2019-03-06T07:30:18.367Z,8.63
2019-03-06T07:32:52.025Z,10.07
2019-03-06T07:36:00.243Z,10.37
2019-03-06T07:38:31.331Z,12.03
2019-03-06T07:41:19.913Z,12.40
2019-03-06T07:44:08.870Z,16.40
2019-03-06T07:46:41.417Z,16.40
2019-03-06T07:49:17.949Z,17.90
2019-03-06T07:52:02.743Z,17.07
2019-03-06T07:54:35.329Z,14.70
2019-03-06T07:57:11.038Z,12.03
2019-03-06T07:59:41.956Z,15.33
2019-03-06T08:02:32.525Z,12.50
2019-03-06T08:05:04.979Z,12.23
2019-03-06T08:07:36.132Z,18.27
2019-03-06T08:10:17.100Z,15.43
2019-03-06T08:12:49.647Z,14.23
2019-03-06T08:15:38.648Z,11.90
2019-03-06T08:18:11.181Z,11.37
2019-03-06T08:20:47.487Z,11.87
2019-03-06T08:23:23.298Z,8.90
2019-03-06T08:25:54.209Z,8.47
2019-03-06T08:28:25.111Z,8.07
2019-03-06T08:31:00.445Z,7.90
2019-03-06T08:33:31.337Z,10.87
2019-03-06T08:36:03.145Z,7.77
2019-03-06T08:38:34.032Z,7.47
2019-03-06T08:41:07.002Z,8.60
2019-03-06T08:43:37.603Z,12.03
2019-03-06T08:46:19.028Z,14.73
2019-03-06T08:49:03.523Z,13.60
2019-03-06T08:51:53.237Z,16.33
2019-03-06T08:54:25.777Z,10.00
2019-03-06T08:56:58.337Z,11.27
2019-03-06T08:59:36.667Z,8.40
2019-03-06T09:02:15.575Z,13.70
2019-03-06T09:04:43.463Z,9.70
2019-03-06T09:07:16.557Z,16.33
2019-03-06T09:10:04.340Z,12.10
2019-03-06T09:12:45.844Z,10.17
2019-03-06T09:15:34.986Z,11.40
2019-03-06T09:18:09.329Z,10.13
2019-03-06T09:20:47.787Z,10.63
2019-03-06T09:23:33.083Z,10.27
2019-03-06T09:26:08.342Z,10.83
2019-03-06T09:28:50.997Z,6.40
2019-03-06T09:31:35.349Z,9.80
2019-03-06T09:34:24.221Z,17.40
2019-03-06T09:37:09.017Z,11.30
2019-03-06T09:39:52.123Z,10.10
2019-03-06T09:42:24.651Z,9.50
2019-03-06T09:45:05.957Z,10.50
2019-03-06T09:47:38.489Z,7.67
2019-03-06T09:50:28.735Z,5.97
2019-03-06T09:53:10.018Z,12.63
2019-03-06T09:55:59.207Z,7.50
2019-03-06T09:58:50.132Z,9.23
2019-03-06T10:01:25.656Z,11.27
2019-03-06T10:04:00.722Z,10.53
2019-03-06T10:06:39.046Z,11.33
2019-03-06T10:09:32.793Z,9.87
2019-03-06T10:12:09.040Z,9.70
2019-03-06T10:14:41.570Z,11.27
2019-03-06T10:17:17.119Z,12.40
2019-03-06T10:19:58.485Z,258.20
2019-03-06T10:22:29.437Z,35.10
2019-03-06T10:25:00.347Z,27.37
2019-03-06T10:27:32.170Z,165.67
2019-03-06T10:30:03.095Z,306.87
2019-03-06T10:32:34.045Z,367.60
2019-03-06T10:35:06.271Z,70.20
2019-03-06T10:37:37.199Z,16.63
2019-03-06T10:40:14.008Z,12.47
2019-03-06T10:42:44.958Z,13.27
2019-03-06T10:45:17.663Z,13.47
2019-03-06T10:47:49.073Z,16.63
2019-03-06T10:50:26.602Z,11.00
2019-03-06T10:52:54.431Z,15.80
2019-03-06T10:55:25.316Z,19.60
2019-03-06T10:57:57.484Z,10.60
2019-03-06T11:00:49.026Z,9.97
2019-03-06T11:03:20.181Z,12.07
2019-03-06T11:05:51.052Z,10.20
2019-03-06T11:08:24.990Z,15.50
2019-03-06T11:10:55.876Z,9.03
2019-03-06T11:13:27.724Z,18.20
2019-03-06T11:15:58.624Z,16.73
2019-03-06T11:18:29.566Z,17.93
2019-03-06T11:21:00.468Z,12.60
2019-03-06T11:23:31.407Z,13.33
2019-03-06T11:26:02.623Z,12.47
2019-03-06T11:28:33.774Z,12.60
2019-03-06T11:31:05.064Z,17.10
2019-03-06T11:33:36.923Z,22.17
2019-03-06T11:36:07.970Z,17.63
2019-03-06T11:38:38.906Z,16.33
2019-03-06T11:41:09.813Z,14.57
2019-03-06T11:43:41.744Z,10.90
2019-03-06T11:46:13.411Z,10.03
2019-03-06T11:48:44.336Z,10.57
2019-03-06T11:51:15.423Z,10.77
2019-03-06T11:53:46.363Z,17.10
2019-03-06T11:56:17.260Z,20.67
2019-03-06T11:58:48.326Z,12.40
2019-03-06T12:01:21.021Z,11.30
2019-03-06T12:03:52.944Z,11.30
2019-03-06T12:06:23.836Z,10.43
2019-03-06T12:08:54.768Z,10.03
2019-03-06T12:11:26.066Z,10.83
2019-03-06T12:13:57.341Z,9.40
2019-03-06T12:16:28.302Z,9.30
2019-03-06T12:18:59.216Z,8.13
2019-03-06T12:21:30.168Z,8.97
2019-03-06T12:24:01.095Z,9.60
2019-03-06T12:26:32.055Z,13.20
2019-03-06T12:29:03.010Z,16.73
2019-03-06T12:31:34.820Z,15.23
2019-03-06T12:34:05.831Z,10.40
2019-03-06T12:36:36.744Z,16.23
2019-03-06T12:39:08.274Z,16.10
2019-03-06T12:41:39.233Z,11.50
2019-03-06T12:44:11.022Z,12.67
2019-03-06T12:46:42.185Z,13.70
2019-03-06T12:49:13.487Z,10.53
2019-03-06T12:51:53.865Z,11.57
2019-03-06T12:54:17.085Z,11.43
2019-03-06T12:56:48.052Z,8.43
2019-03-06T12:59:19.922Z,20.07
2019-03-06T13:01:51.008Z,15.33
2019-03-06T13:04:21.932Z,10.40
2019-03-06T13:06:52.930Z,10.97
2019-03-06T13:09:23.916Z,10.07
2019-03-06T13:11:54.813Z,12.07
2019-03-06T13:14:26.044Z,10.87
2019-03-06T13:16:57.041Z,9.63
2019-03-06T13:19:27.957Z,11.13
2019-03-06T13:21:58.859Z,11.97
2019-03-06T13:24:29.858Z,10.03
2019-03-06T13:27:00.927Z,9.13
2019-03-06T13:29:31.859Z,8.33
2019-03-06T13:32:11.494Z,9.83
2019-03-06T13:34:36.287Z,9.97
2019-03-06T13:37:07.173Z,9.33
2019-03-06T13:39:38.275Z,11.57
2019-03-06T13:42:09.166Z,11.57
2019-03-06T13:44:40.905Z,12.60
2019-03-06T13:47:11.806Z,13.27
2019-03-06T13:49:43.845Z,9.07
2019-03-06T13:52:14.991Z,13.20
2019-03-06T13:54:45.917Z,10.37
2019-03-06T13:57:16.887Z,8.47
2019-03-06T13:59:48.661Z,15.93
2019-03-06T14:02:19.835Z,9.03
2019-03-06T14:04:51.100Z,9.93
2019-03-06T14:07:21.987Z,8.23
2019-03-06T14:09:52.900Z,9.57
2019-03-06T14:12:23.785Z,9.07
2019-03-06T14:14:54.747Z,10.40
2019-03-06T14:17:25.651Z,10.17
2019-03-06T14:19:56.567Z,8.17
2019-03-06T14:22:27.568Z,9.57
2019-03-06T14:24:58.563Z,9.80
2019-03-06T14:27:31.237Z,11.90
2019-03-06T14:30:03.159Z,12.70
2019-03-06T14:32:34.875Z,12.70
2019-03-06T14:35:05.905Z,13.97
2019-03-06T14:37:36.804Z,12.10
2019-03-06T14:40:13.584Z,17.83
2019-03-06T14:42:44.675Z,14.37
2019-03-06T14:45:16.583Z,11.47
2019-03-06T14:47:47.581Z,11.53
2019-03-06T14:50:18.516Z,15.63
2019-03-06T14:52:49.412Z,26.23
2019-03-06T14:55:20.760Z,20.87
2019-03-06T14:57:51.705Z,12.27
2019-03-06T15:00:24.055Z,14.77
2019-03-06T15:02:55.021Z,11.33
2019-03-06T15:05:26.346Z,17.93
2019-03-06T15:07:57.456Z,11.00
2019-03-06T15:10:28.430Z,15.13
2019-03-06T15:12:59.425Z,15.17
2019-03-06T15:15:31.230Z,18.37
2019-03-06T15:18:10.310Z,22.33
2019-03-06T15:20:34.761Z,20.20
2019-03-06T15:23:05.676Z,26.20
2019-03-06T15:25:36.625Z,20.03
2019-03-06T15:28:07.531Z,26.93
2019-03-06T15:30:40.750Z,25.07
2019-03-06T15:33:12.531Z,26.13
2019-03-06T15:35:43.471Z,18.50
2019-03-06T15:38:14.377Z,16.53
2019-03-06T15:40:45.372Z,20.30
2019-03-06T15:43:17.927Z,21.40
2019-03-06T15:45:49.879Z,47.73
2019-03-06T15:48:20.792Z,84.13
2019-03-06T15:50:52.021Z,82.77
2019-03-06T15:53:24.635Z,138.37
2019-03-06T15:55:56.359Z,30.87
2019-03-06T15:58:27.394Z,26.23
2019-03-06T16:00:59.241Z,57.57
2019-03-06T16:03:30.568Z,85.80
2019-03-06T16:06:01.619Z,27.53
2019-03-06T16:08:32.760Z,26.53
2019-03-06T16:11:03.931Z,29.57
2019-03-06T16:13:34.944Z,121.23
2019-03-06T16:16:07.010Z,129.30
2019-03-06T16:18:40.354Z,51.00
2019-03-06T16:21:11.506Z,56.97
2019-03-06T16:23:42.739Z,73.47
2019-03-06T16:26:13.744Z,80.37
2019-03-06T16:28:45.041Z,49.37
2019-03-06T16:31:16.662Z,66.40
2019-03-06T16:33:48.451Z,47.30
2019-03-06T16:36:19.423Z,77.63
2019-03-06T16:38:50.427Z,138.17
2019-03-06T16:41:21.487Z,111.13
2019-03-06T16:43:52.486Z,90.90
2019-03-06T16:46:24.440Z,108.30
2019-03-06T16:48:55.428Z,98.47
2019-03-06T16:51:26.447Z,59.97
2019-03-06T16:53:57.418Z,71.83
2019-03-06T16:56:28.452Z,80.13
2019-03-06T16:58:59.868Z,117.43
2019-03-06T17:01:32.157Z,75.60
2019-03-06T17:04:03.133Z,63.37
2019-03-06T17:06:34.333Z,62.43
2019-03-06T17:09:06.764Z,93.40
2019-03-06T17:11:37.836Z,55.70
2019-03-06T17:14:08.784Z,61.90
2019-03-06T17:16:40.780Z,93.70
2019-03-06T17:19:11.775Z,57.10
2019-03-06T17:21:43.943Z,117.43
2019-03-06T17:24:14.973Z,96.07
2019-03-06T17:26:46.040Z,68.07
2019-03-06T17:29:17.170Z,75.83
2019-03-06T17:31:49.324Z,111.63
2019-03-06T17:34:20.545Z,109.60
2019-03-06T17:36:51.614Z,110.40
2019-03-06T17:39:22.782Z,69.60
2019-03-06T17:41:53.768Z,81.20
2019-03-06T17:44:24.896Z,100.00
2019-03-06T17:46:56.919Z,111.00
2019-03-06T17:49:28.181Z,120.40
2019-03-06T17:51:59.202Z,127.90
2019-03-06T17:54:30.132Z,302.17
2019-03-06T17:57:01.083Z,231.80
2019-03-06T17:59:32.189Z,229.50
2019-03-06T18:02:04.175Z,230.27
2019-03-06T18:04:35.266Z,240.10
2019-03-06T18:07:06.424Z,262.27
2019-03-06T18:09:37.461Z,202.37
2019-03-06T18:12:08.773Z,222.57
2019-03-06T18:14:39.817Z,259.90
2019-03-06T18:17:11.635Z,286.27
2019-03-06T18:19:42.627Z,158.87
2019-03-06T18:22:13.651Z,185.47
2019-03-06T18:24:44.781Z,152.00
2019-03-06T18:27:15.819Z,139.47
2019-03-06T18:29:46.803Z,199.17
2019-03-06T18:32:18.738Z,111.33
2019-03-06T18:34:50.644Z,181.17
2019-03-06T18:37:21.958Z,147.83
2019-03-06T18:39:53.025Z,91.93
2019-03-06T18:42:24.059Z,345.77
2019-03-06T18:44:55.103Z,155.07
2019-03-06T18:47:26.363Z,156.57
2019-03-06T18:49:57.718Z,131.00
2019-03-06T18:52:28.767Z,124.03
2019-03-06T18:55:01.393Z,121.97
2019-03-06T18:57:32.767Z,43.17
2019-03-06T19:00:05.701Z,94.57
2019-03-06T19:02:37.893Z,30.40
2019-03-06T19:05:10.636Z,26.87
2019-03-06T19:07:44.245Z,27.10
2019-03-06T19:10:17.382Z,78.63
2019-03-06T19:12:49.328Z,31.30
2019-03-06T19:15:22.663Z,31.70
2019-03-06T19:17:55.047Z,22.83
2019-03-06T19:20:26.369Z,22.27
2019-03-06T19:22:57.679Z,30.67
2019-03-06T19:25:31.286Z,29.10
2019-03-06T19:28:02.554Z,27.03
2019-03-06T19:30:33.961Z,33.50
2019-03-06T19:33:08.006Z,30.47
2019-03-06T19:35:39.862Z,33.67
2019-03-06T19:38:11.136Z,24.73
2019-03-06T19:40:42.118Z,24.70
2019-03-06T19:43:13.216Z,28.97
2019-03-06T19:45:44.214Z,25.60
2019-03-06T19:48:16.145Z,24.80
2019-03-06T19:50:47.263Z,27.70
2019-03-06T19:53:18.248Z,29.43
2019-03-06T19:55:49.372Z,27.67
2019-03-06T19:58:20.430Z,28.63
2019-03-06T20:00:51.637Z,29.87
2019-03-06T20:03:23.641Z,28.13
2019-03-06T20:05:54.575Z,29.83
2019-03-06T20:08:25.779Z,28.70
2019-03-06T20:10:57.041Z,31.97
2019-03-06T20:13:28.276Z,30.07
2019-03-06T20:15:59.357Z,24.60
2019-03-06T20:18:31.400Z,26.57
2019-03-06T20:21:02.686Z,30.97
2019-03-06T20:23:34.218Z,29.40
2019-03-06T20:26:13.690Z,28.20
2019-03-06T20:28:38.382Z,27.20
2019-03-06T20:31:09.794Z,23.77
2019-03-06T20:33:41.655Z,26.03
2019-03-06T20:36:14.279Z,23.90
2019-03-06T20:38:45.516Z,27.70
2019-03-06T20:41:16.551Z,26.73
2019-03-06T20:43:47.931Z,29.30
2019-03-06T20:46:18.853Z,24.27
2019-03-06T20:48:50.775Z,27.13
2019-03-06T20:51:21.795Z,23.97
2019-03-06T20:53:53.085Z,26.23
2019-03-06T20:56:24.206Z,26.57
2019-03-06T20:58:55.230Z,26.53
2019-03-06T21:01:26.388Z,28.10
2019-03-06T21:03:59.884Z,30.03
2019-03-06T21:06:33.774Z,28.70
2019-03-06T21:09:04.512Z,25.33
2019-03-06T21:11:36.384Z,22.40
2019-03-06T21:14:08.083Z,27.30
2019-03-06T21:16:39.102Z,24.63
2019-03-06T21:19:10.981Z,23.80
2019-03-06T21:21:41.985Z,23.80
2019-03-06T21:24:12.946Z,26.03
2019-03-06T21:26:44.380Z,26.80
2019-03-06T21:29:15.648Z,25.23
2019-03-06T21:31:46.660Z,23.90
2019-03-06T21:34:18.574Z,25.00
2019-03-06T21:36:51.551Z,22.53
2019-03-06T21:39:24.125Z,23.27
2019-03-06T21:41:55.354Z,27.93
2019-03-06T21:44:26.356Z,22.40
2019-03-06T21:46:58.228Z,27.20
2019-03-06T21:49:30.316Z,22.77
2019-03-06T21:52:01.706Z,24.97
2019-03-06T21:54:32.780Z,30.60
2019-03-06T21:57:03.707Z,24.47
2019-03-06T21:59:34.884Z,24.77
2019-03-06T22:02:05.830Z,27.90
2019-03-06T22:04:39.430Z,26.87
2019-03-06T22:07:10.468Z,24.87
2019-03-06T22:09:41.478Z,22.90
2019-03-06T22:12:15.340Z,23.77
2019-03-06T22:14:46.307Z,23.00
2019-03-06T22:17:17.697Z,24.00
2019-03-06T22:19:49.639Z,23.50
2019-03-06T22:22:22.003Z,21.27
2019-03-06T22:24:52.924Z,23.03
2019-03-06T22:27:24.050Z,23.53
2019-03-06T22:29:55.497Z,22.67
2019-03-06T22:32:27.237Z,24.53
2019-03-06T22:34:58.302Z,24.33
2019-03-06T22:37:30.142Z,23.03
2019-03-06T22:40:01.225Z,22.53
2019-03-06T22:42:32.162Z,25.53
2019-03-06T22:45:03.211Z,22.23
2019-03-06T22:47:34.491Z,26.20
2019-03-06T22:50:11.570Z,22.17
2019-03-06T22:52:42.585Z,20.87
2019-03-06T22:55:16.273Z,21.13
2019-03-06T22:57:47.554Z,22.10
2019-03-06T23:00:30.164Z,23.57
2019-03-06T23:03:01.611Z,23.03
2019-03-06T23:05:36.172Z,24.47
2019-03-06T23:08:07.483Z,22.30
2019-03-06T23:10:38.601Z,14.13
2019-03-06T23:13:09.604Z,24.77
2019-03-06T23:15:40.567Z,25.73
2019-03-06T23:18:11.501Z,20.03
2019-03-06T23:20:44.558Z,17.57
2019-03-06T23:23:15.486Z,24.80
2019-03-06T23:25:46.442Z,19.93
2019-03-06T23:28:17.905Z,22.23
2019-03-06T23:30:49.067Z,21.03
2019-03-06T23:33:20.091Z,18.92
2019-03-06T23:35:51.090Z,22.53
2019-03-06T23:38:23.213Z,21.43
2019-03-06T23:40:54.345Z,23.77
2019-03-06T23:43:25.387Z,19.30
2019-03-06T23:45:56.379Z,18.70
2019-03-06T23:48:27.321Z,23.20
2019-03-06T23:51:00.708Z,19.03
2019-03-06T23:53:33.311Z,21.43
2019-03-06T23:56:04.547Z,21.57
2019-03-06T23:58:35.579Z,22.10
